createdAt,value
2023-07-28T03:45:19.001Z,1.5
2023-07-28T04:02:20.180Z,2.8
2023-07-28T04:15:19.007Z,5.9
2023-07-28T04:30:19.797Z,8.2
2023-07-28T04:45:19.530Z,11.7
2023-07-28T05:00:19.629Z,12.3
2023-07-28T05:15:32.407Z,18
2023-07-28T05:30:18.900Z,21.1
2023-07-28T05:45:18.856Z,41.4
2023-07-28T06:00:19.625Z,43.1
2023-07-28T06:15:18.735Z,58.1
2023-07-28T06:30:18.857Z,68.2
2023-07-28T06:45:18.972Z,62.3
2023-07-28T07:00:19.233Z,53.2
2023-07-28T07:15:18.921Z,83
2023-07-28T07:30:32.495Z,70.6
2023-07-28T07:45:19.544Z,65
2023-07-28T08:00:20.973Z,83.3
2023-07-28T08:15:19.321Z,106
2023-07-28T08:30:19.076Z,112.8
2023-07-28T08:45:19.421Z,111.9
2023-07-28T09:00:18.908Z,122.2
2023-07-28T09:15:18.924Z,96.3
2023-07-28T09:30:19.081Z,76.1
2023-07-28T09:45:31.146Z,96.4
2023-07-28T10:00:19.499Z,68.4
2023-07-28T10:15:19.082Z,57.9
2023-07-28T10:30:18.651Z,94.1
2023-07-28T10:45:19.397Z,153.1
2023-07-28T11:00:20.061Z,160.9
2023-07-28T11:15:19.173Z,142.7
2023-07-28T11:30:22.927Z,160.1
2023-07-28T11:45:19.247Z,196.5
2023-07-28T12:00:20.072Z,188.6
2023-07-28T12:30:18.998Z,106.6
2023-07-28T12:45:22.524Z,127.5
2023-07-28T13:15:19.241Z,120.1
2023-07-28T13:30:19.198Z,119.4
2023-07-28T13:45:19.707Z,126.5
2023-07-28T14:00:22.154Z,139.1
2023-07-28T14:15:18.755Z,124.7
2023-07-28T14:30:19.329Z,113.4
2023-07-28T14:45:18.957Z,133
2023-07-28T15:00:23.357Z,161
2023-07-28T15:15:18.993Z,346.7
2023-07-28T15:30:18.557Z,304.1
2023-07-28T15:45:20.127Z,365.9
2023-07-28T16:00:19.513Z,357.6
2023-07-28T16:15:19.488Z,517.3
2023-07-28T16:30:19.603Z,442
2023-07-28T16:45:18.644Z,539.5
2023-07-28T17:00:19.335Z,561.7
2023-07-28T17:15:29.894Z,509.1
2023-07-28T17:30:19.265Z,675.3
2023-07-28T17:45:19.753Z,595.6
2023-07-28T18:00:20.027Z,206.6
2023-07-28T18:15:24.372Z,64.5
2023-07-28T18:30:18.845Z,43.7
2023-07-28T18:45:19.955Z,36
2023-07-28T19:00:19.602Z,18.8
2023-07-28T19:15:38.151Z,7.2
2023-07-28T19:30:19.436Z,1.6
2023-07-28T19:45:19.461Z,0.8
2023-07-28T20:00:19.991Z,0.8
2023-07-28T20:15:19.399Z,0.8
2023-07-28T20:30:22.169Z,7.7
2023-07-28T20:45:20.027Z,30.1
2023-07-28T21:00:22.043Z,30.1
2023-07-28T21:15:18.965Z,30
2023-07-28T21:30:19.229Z,24.1
2023-07-28T21:45:18.578Z,14.2
2023-07-28T22:00:19.219Z,14.2
2023-07-28T22:15:18.952Z,14.2
2023-07-28T22:30:19.358Z,14.2
